sensor_id;sensor_type;location;lat;lon;timestamp;temperature;humidity
43697;DHT22;29301;47.620;19.560;2023-04-24T00:00:01;10.40;50.40
43697;DHT22;29301;47.620;19.560;2023-04-24T00:02:30;10.50;50.50
43697;DHT22;29301;47.620;19.560;2023-04-24T00:04:57;10.50;50.40
43697;DHT22;29301;47.620;19.560;2023-04-24T00:07:31;10.40;50.00
43697;DHT22;29301;47.620;19.560;2023-04-24T00:09:57;10.50;50.00
43697;DHT22;29301;47.620;19.560;2023-04-24T00:12:23;10.60;50.00
43697;DHT22;29301;47.620;19.560;2023-04-24T00:14:49;10.60;50.60
43697;DHT22;29301;47.620;19.560;2023-04-24T00:17:14;10.60;50.50
43697;DHT22;29301;47.620;19.560;2023-04-24T00:19:40;10.60;50.30
43697;DHT22;29301;47.620;19.560;2023-04-24T00:22:06;10.30;51.00
43697;DHT22;29301;47.620;19.560;2023-04-24T00:24:32;10.30;51.80
43697;DHT22;29301;47.620;19.560;2023-04-24T00:26:58;10.30;52.20
43697;DHT22;29301;47.620;19.560;2023-04-24T00:29:24;10.20;52.30
43697;DHT22;29301;47.620;19.560;2023-04-24T00:31:50;10.30;52.10
43697;DHT22;29301;47.620;19.560;2023-04-24T00:34:16;10.30;51.70
43697;DHT22;29301;47.620;19.560;2023-04-24T00:36:41;10.30;51.80
43697;DHT22;29301;47.620;19.560;2023-04-24T00:39:07;10.30;51.70
43697;DHT22;29301;47.620;19.560;2023-04-24T00:41:36;10.40;51.40
43697;DHT22;29301;47.620;19.560;2023-04-24T00:44:02;10.40;51.30
43697;DHT22;29301;47.620;19.560;2023-04-24T00:46:28;10.40;51.10
43697;DHT22;29301;47.620;19.560;2023-04-24T00:48:56;10.50;50.80
43697;DHT22;29301;47.620;19.560;2023-04-24T00:51:21;10.50;51.10
43697;DHT22;29301;47.620;19.560;2023-04-24T00:53:49;10.50;50.90
43697;DHT22;29301;47.620;19.560;2023-04-24T00:56:16;10.50;51.40
43697;DHT22;29301;47.620;19.560;2023-04-24T00:58:43;10.50;51.90
43697;DHT22;29301;47.620;19.560;2023-04-24T01:01:10;10.50;52.60
43697;DHT22;29301;47.620;19.560;2023-04-24T01:03:37;10.50;53.10
43697;DHT22;29301;47.620;19.560;2023-04-24T01:06:03;10.50;53.20
43697;DHT22;29301;47.620;19.560;2023-04-24T01:08:30;10.50;53.60
43697;DHT22;29301;47.620;19.560;2023-04-24T01:10:57;10.40;53.70
43697;DHT22;29301;47.620;19.560;2023-04-24T01:13:23;10.50;53.60
43697;DHT22;29301;47.620;19.560;2023-04-24T01:15:49;10.50;53.60
43697;DHT22;29301;47.620;19.560;2023-04-24T01:18:15;10.40;53.70
43697;DHT22;29301;47.620;19.560;2023-04-24T01:20:43;10.30;54.40
43697;DHT22;29301;47.620;19.560;2023-04-24T01:23:10;10.20;55.10
43697;DHT22;29301;47.620;19.560;2023-04-24T01:25:37;10.20;55.80
43697;DHT22;29301;47.620;19.560;2023-04-24T01:28:03;10.10;55.70
43697;DHT22;29301;47.620;19.560;2023-04-24T01:30:31;10.10;55.70
43697;DHT22;29301;47.620;19.560;2023-04-24T01:32:58;10.20;55.50
43697;DHT22;29301;47.620;19.560;2023-04-24T01:35:24;10.40;55.50
43697;DHT22;29301;47.620;19.560;2023-04-24T01:37:50;10.40;55.30
43697;DHT22;29301;47.620;19.560;2023-04-24T01:40:16;10.60;55.90
43697;DHT22;29301;47.620;19.560;2023-04-24T01:42:42;10.60;55.70
43697;DHT22;29301;47.620;19.560;2023-04-24T01:45:10;10.60;55.60
43697;DHT22;29301;47.620;19.560;2023-04-24T01:47:36;10.60;55.80
43697;DHT22;29301;47.620;19.560;2023-04-24T01:50:04;10.60;56.50
43697;DHT22;29301;47.620;19.560;2023-04-24T01:52:29;10.60;56.30
43697;DHT22;29301;47.620;19.560;2023-04-24T01:55:00;10.60;56.30
43697;DHT22;29301;47.620;19.560;2023-04-24T01:57:26;10.60;56.70
43697;DHT22;29301;47.620;19.560;2023-04-24T01:59:51;10.50;57.30
43697;DHT22;29301;47.620;19.560;2023-04-24T02:02:17;10.40;57.70
43697;DHT22;29301;47.620;19.560;2023-04-24T02:04:43;10.40;57.70
43697;DHT22;29301;47.620;19.560;2023-04-24T02:07:09;10.40;59.30
43697;DHT22;29301;47.620;19.560;2023-04-24T02:09:34;10.30;59.50
43697;DHT22;29301;47.620;19.560;2023-04-24T02:12:00;10.40;60.20
43697;DHT22;29301;47.620;19.560;2023-04-24T02:14:26;10.20;61.80
43697;DHT22;29301;47.620;19.560;2023-04-24T02:16:51;10.10;62.60
43697;DHT22;29301;47.620;19.560;2023-04-24T02:19:18;10.20;62.30
43697;DHT22;29301;47.620;19.560;2023-04-24T02:21:44;10.40;61.70
43697;DHT22;29301;47.620;19.560;2023-04-24T02:24:10;10.50;60.80
43697;DHT22;29301;47.620;19.560;2023-04-24T02:26:35;10.50;60.30
43697;DHT22;29301;47.620;19.560;2023-04-24T02:29:01;10.40;61.00
43697;DHT22;29301;47.620;19.560;2023-04-24T02:31:27;10.30;61.40
43697;DHT22;29301;47.620;19.560;2023-04-24T02:33:53;10.20;62.00
43697;DHT22;29301;47.620;19.560;2023-04-24T02:36:18;10.20;61.60
43697;DHT22;29301;47.620;19.560;2023-04-24T02:38:44;10.30;60.80
43697;DHT22;29301;47.620;19.560;2023-04-24T02:41:10;10.40;60.20
43697;DHT22;29301;47.620;19.560;2023-04-24T02:43:36;10.60;60.00
43697;DHT22;29301;47.620;19.560;2023-04-24T02:46:02;10.70;59.80
43697;DHT22;29301;47.620;19.560;2023-04-24T02:48:28;10.70;59.10
43697;DHT22;29301;47.620;19.560;2023-04-24T02:50:54;10.80;58.00
43697;DHT22;29301;47.620;19.560;2023-04-24T02:53:19;10.80;57.10
43697;DHT22;29301;47.620;19.560;2023-04-24T02:55:45;10.90;56.80
43697;DHT22;29301;47.620;19.560;2023-04-24T02:58:11;10.90;56.90
43697;DHT22;29301;47.620;19.560;2023-04-24T03:00:38;11.00;57.40
43697;DHT22;29301;47.620;19.560;2023-04-24T03:03:05;11.00;58.20
43697;DHT22;29301;47.620;19.560;2023-04-24T03:05:31;11.00;59.00
43697;DHT22;29301;47.620;19.560;2023-04-24T03:07:57;11.00;58.80
43697;DHT22;29301;47.620;19.560;2023-04-24T03:10:22;11.00;59.80
43697;DHT22;29301;47.620;19.560;2023-04-24T03:12:48;10.90;60.10
43697;DHT22;29301;47.620;19.560;2023-04-24T03:15:14;10.90;60.40
43697;DHT22;29301;47.620;19.560;2023-04-24T03:17:40;10.80;60.30
43697;DHT22;29301;47.620;19.560;2023-04-24T03:20:06;10.80;60.10
43697;DHT22;29301;47.620;19.560;2023-04-24T03:22:33;10.90;59.80
43697;DHT22;29301;47.620;19.560;2023-04-24T03:24:59;10.90;60.40
43697;DHT22;29301;47.620;19.560;2023-04-24T03:27:25;10.80;61.00
43697;DHT22;29301;47.620;19.560;2023-04-24T03:29:50;10.80;61.60
43697;DHT22;29301;47.620;19.560;2023-04-24T03:32:21;10.50;62.50
43697;DHT22;29301;47.620;19.560;2023-04-24T03:34:48;10.40;63.30
43697;DHT22;29301;47.620;19.560;2023-04-24T03:37:14;10.50;63.20
43697;DHT22;29301;47.620;19.560;2023-04-24T03:39:40;10.50;63.40
43697;DHT22;29301;47.620;19.560;2023-04-24T03:42:06;10.60;63.80
43697;DHT22;29301;47.620;19.560;2023-04-24T03:44:31;10.60;64.90
43697;DHT22;29301;47.620;19.560;2023-04-24T03:46:58;10.60;67.70
43697;DHT22;29301;47.620;19.560;2023-04-24T03:49:23;10.50;70.30
43697;DHT22;29301;47.620;19.560;2023-04-24T03:51:49;10.50;73.10
43697;DHT22;29301;47.620;19.560;2023-04-24T03:54:15;10.20;76.80
43697;DHT22;29301;47.620;19.560;2023-04-24T03:56:40;9.90;81.40
43697;DHT22;29301;47.620;19.560;2023-04-24T03:59:06;10.00;82.40
43697;DHT22;29301;47.620;19.560;2023-04-24T04:01:32;10.10;82.10
43697;DHT22;29301;47.620;19.560;2023-04-24T04:03:57;10.20;81.70
43697;DHT22;29301;47.620;19.560;2023-04-24T04:06:23;10.20;82.20
43697;DHT22;29301;47.620;19.560;2023-04-24T04:08:49;10.10;83.20
43697;DHT22;29301;47.620;19.560;2023-04-24T04:11:14;10.20;84.70
43697;DHT22;29301;47.620;19.560;2023-04-24T04:13:40;10.30;84.20
43697;DHT22;29301;47.620;19.560;2023-04-24T04:16:06;10.40;86.60
43697;DHT22;29301;47.620;19.560;2023-04-24T04:18:31;10.40;86.40
43697;DHT22;29301;47.620;19.560;2023-04-24T04:20:57;10.50;85.60
43697;DHT22;29301;47.620;19.560;2023-04-24T04:23:23;10.50;86.00
43697;DHT22;29301;47.620;19.560;2023-04-24T04:25:49;10.60;86.00
43697;DHT22;29301;47.620;19.560;2023-04-24T04:28:15;10.60;85.30
43697;DHT22;29301;47.620;19.560;2023-04-24T04:30:41;10.60;85.90
43697;DHT22;29301;47.620;19.560;2023-04-24T04:33:06;10.70;85.90
43697;DHT22;29301;47.620;19.560;2023-04-24T04:35:33;10.70;85.90
43697;DHT22;29301;47.620;19.560;2023-04-24T04:37:59;10.80;85.70
43697;DHT22;29301;47.620;19.560;2023-04-24T04:40:26;10.80;85.00
43697;DHT22;29301;47.620;19.560;2023-04-24T04:42:52;10.70;85.30
43697;DHT22;29301;47.620;19.560;2023-04-24T04:45:19;10.60;87.00
43697;DHT22;29301;47.620;19.560;2023-04-24T04:47:46;10.50;88.40
43697;DHT22;29301;47.620;19.560;2023-04-24T04:50:11;10.50;90.00
43697;DHT22;29301;47.620;19.560;2023-04-24T04:52:37;10.40;90.50
43697;DHT22;29301;47.620;19.560;2023-04-24T04:55:03;10.30;91.80
43697;DHT22;29301;47.620;19.560;2023-04-24T04:57:29;10.30;92.00
43697;DHT22;29301;47.620;19.560;2023-04-24T04:59:55;10.30;92.20
43697;DHT22;29301;47.620;19.560;2023-04-24T05:02:21;10.20;92.50
43697;DHT22;29301;47.620;19.560;2023-04-24T05:04:47;10.20;92.80
43697;DHT22;29301;47.620;19.560;2023-04-24T05:07:12;10.30;92.70
43697;DHT22;29301;47.620;19.560;2023-04-24T05:09:38;10.30;93.30
43697;DHT22;29301;47.620;19.560;2023-04-24T05:12:04;10.50;92.80
43697;DHT22;29301;47.620;19.560;2023-04-24T05:14:29;10.50;92.20
43697;DHT22;29301;47.620;19.560;2023-04-24T05:16:55;10.60;91.90
43697;DHT22;29301;47.620;19.560;2023-04-24T05:19:21;10.60;91.90
43697;DHT22;29301;47.620;19.560;2023-04-24T05:21:46;10.70;91.90
43697;DHT22;29301;47.620;19.560;2023-04-24T05:24:12;10.60;91.90
43697;DHT22;29301;47.620;19.560;2023-04-24T05:26:38;10.60;92.30
43697;DHT22;29301;47.620;19.560;2023-04-24T05:29:03;10.60;92.70
43697;DHT22;29301;47.620;19.560;2023-04-24T05:31:29;10.80;92.30
43697;DHT22;29301;47.620;19.560;2023-04-24T05:33:55;10.80;91.90
43697;DHT22;29301;47.620;19.560;2023-04-24T05:36:21;10.90;91.70
43697;DHT22;29301;47.620;19.560;2023-04-24T05:38:46;11.00;91.20
43697;DHT22;29301;47.620;19.560;2023-04-24T05:41:12;11.00;90.80
43697;DHT22;29301;47.620;19.560;2023-04-24T05:43:37;11.00;90.70
43697;DHT22;29301;47.620;19.560;2023-04-24T05:46:03;11.10;90.30
43697;DHT22;29301;47.620;19.560;2023-04-24T05:48:29;11.20;90.00
43697;DHT22;29301;47.620;19.560;2023-04-24T05:50:55;11.20;88.80
43697;DHT22;29301;47.620;19.560;2023-04-24T05:53:21;11.30;88.20
43697;DHT22;29301;47.620;19.560;2023-04-24T05:55:47;11.40;87.20
43697;DHT22;29301;47.620;19.560;2023-04-24T05:58:13;11.40;87.10
43697;DHT22;29301;47.620;19.560;2023-04-24T06:00:39;11.40;87.60
43697;DHT22;29301;47.620;19.560;2023-04-24T06:03:08;11.40;87.60
43697;DHT22;29301;47.620;19.560;2023-04-24T06:05:33;11.50;87.50
43697;DHT22;29301;47.620;19.560;2023-04-24T06:08:00;11.50;86.90
43697;DHT22;29301;47.620;19.560;2023-04-24T06:10:26;11.50;86.70
43697;DHT22;29301;47.620;19.560;2023-04-24T06:12:51;11.60;87.00
43697;DHT22;29301;47.620;19.560;2023-04-24T06:15:17;11.70;86.80
43697;DHT22;29301;47.620;19.560;2023-04-24T06:17:43;11.80;87.70
43697;DHT22;29301;47.620;19.560;2023-04-24T06:20:09;11.80;88.70
43697;DHT22;29301;47.620;19.560;2023-04-24T06:22:36;11.80;87.40
43697;DHT22;29301;47.620;19.560;2023-04-24T06:25:02;11.90;88.10
43697;DHT22;29301;47.620;19.560;2023-04-24T06:27:27;11.90;87.60
43697;DHT22;29301;47.620;19.560;2023-04-24T06:29:53;12.00;86.60
43697;DHT22;29301;47.620;19.560;2023-04-24T06:32:23;12.00;84.50
43697;DHT22;29301;47.620;19.560;2023-04-24T06:34:51;12.00;83.40
43697;DHT22;29301;47.620;19.560;2023-04-24T06:37:18;12.00;83.10
43697;DHT22;29301;47.620;19.560;2023-04-24T06:39:44;12.00;82.90
43697;DHT22;29301;47.620;19.560;2023-04-24T06:42:10;12.00;82.60
43697;DHT22;29301;47.620;19.560;2023-04-24T06:44:36;12.00;82.90
43697;DHT22;29301;47.620;19.560;2023-04-24T06:47:07;12.00;82.80
43697;DHT22;29301;47.620;19.560;2023-04-24T06:49:34;12.00;83.00
43697;DHT22;29301;47.620;19.560;2023-04-24T06:52:00;11.90;84.30
43697;DHT22;29301;47.620;19.560;2023-04-24T06:54:25;11.80;83.60
43697;DHT22;29301;47.620;19.560;2023-04-24T06:56:51;11.80;84.30
43697;DHT22;29301;47.620;19.560;2023-04-24T06:59:17;11.80;85.00
43697;DHT22;29301;47.620;19.560;2023-04-24T07:01:43;11.80;85.00
43697;DHT22;29301;47.620;19.560;2023-04-24T07:04:09;11.80;85.30
43697;DHT22;29301;47.620;19.560;2023-04-24T07:06:35;11.70;85.20
43697;DHT22;29301;47.620;19.560;2023-04-24T07:09:01;11.70;85.60
43697;DHT22;29301;47.620;19.560;2023-04-24T07:11:27;11.70;85.50
43697;DHT22;29301;47.620;19.560;2023-04-24T07:13:55;11.80;85.80
43697;DHT22;29301;47.620;19.560;2023-04-24T07:16:21;11.80;85.70
43697;DHT22;29301;47.620;19.560;2023-04-24T07:18:46;11.90;86.50
43697;DHT22;29301;47.620;19.560;2023-04-24T07:21:12;12.00;86.30
43697;DHT22;29301;47.620;19.560;2023-04-24T07:23:38;12.20;85.30
43697;DHT22;29301;47.620;19.560;2023-04-24T07:26:04;12.30;84.40
43697;DHT22;29301;47.620;19.560;2023-04-24T07:28:30;12.40;83.60
43697;DHT22;29301;47.620;19.560;2023-04-24T07:30:57;12.40;83.20
43697;DHT22;29301;47.620;19.560;2023-04-24T07:33:24;12.40;82.50
43697;DHT22;29301;47.620;19.560;2023-04-24T07:35:49;12.50;81.70
43697;DHT22;29301;47.620;19.560;2023-04-24T07:38:15;12.50;81.60
43697;DHT22;29301;47.620;19.560;2023-04-24T07:40:41;12.60;81.90
43697;DHT22;29301;47.620;19.560;2023-04-24T07:43:07;12.60;82.20
43697;DHT22;29301;47.620;19.560;2023-04-24T07:45:32;12.50;82.30
43697;DHT22;29301;47.620;19.560;2023-04-24T07:48:02;12.50;83.90
43697;DHT22;29301;47.620;19.560;2023-04-24T07:50:28;12.40;84.20
43697;DHT22;29301;47.620;19.560;2023-04-24T07:52:54;12.40;86.10
43697;DHT22;29301;47.620;19.560;2023-04-24T07:55:19;12.30;88.20
43697;DHT22;29301;47.620;19.560;2023-04-24T07:57:45;12.20;90.70
43697;DHT22;29301;47.620;19.560;2023-04-24T08:00:11;12.30;91.20
43697;DHT22;29301;47.620;19.560;2023-04-24T08:02:37;12.30;91.80
43697;DHT22;29301;47.620;19.560;2023-04-24T08:05:03;12.30;92.70
43697;DHT22;29301;47.620;19.560;2023-04-24T08:07:29;12.30;92.40
43697;DHT22;29301;47.620;19.560;2023-04-24T08:09:55;12.30;93.00
43697;DHT22;29301;47.620;19.560;2023-04-24T08:12:20;12.30;93.60
43697;DHT22;29301;47.620;19.560;2023-04-24T08:14:46;12.30;94.80
43697;DHT22;29301;47.620;19.560;2023-04-24T08:17:12;12.30;95.30
43697;DHT22;29301;47.620;19.560;2023-04-24T08:19:39;12.30;96.10
43697;DHT22;29301;47.620;19.560;2023-04-24T08:22:07;12.40;96.20
43697;DHT22;29301;47.620;19.560;2023-04-24T08:24:33;12.40;96.80
43697;DHT22;29301;47.620;19.560;2023-04-24T08:26:59;12.30;96.30
43697;DHT22;29301;47.620;19.560;2023-04-24T08:29:24;12.30;97.40
43697;DHT22;29301;47.620;19.560;2023-04-24T08:31:50;12.10;96.60
43697;DHT22;29301;47.620;19.560;2023-04-24T08:34:16;12.20;97.40
43697;DHT22;29301;47.620;19.560;2023-04-24T08:36:41;12.10;97.40
43697;DHT22;29301;47.620;19.560;2023-04-24T08:39:07;12.10;98.50
43697;DHT22;29301;47.620;19.560;2023-04-24T08:41:34;12.20;99.30
43697;DHT22;29301;47.620;19.560;2023-04-24T08:44:02;12.30;99.70
43697;DHT22;29301;47.620;19.560;2023-04-24T08:46:30;12.40;98.90
43697;DHT22;29301;47.620;19.560;2023-04-24T08:48:56;12.40;99.00
43697;DHT22;29301;47.620;19.560;2023-04-24T08:51:22;12.50;99.90
43697;DHT22;29301;47.620;19.560;2023-04-24T08:53:54;12.70;99.80
43697;DHT22;29301;47.620;19.560;2023-04-24T08:56:21;12.70;99.90
43697;DHT22;29301;47.620;19.560;2023-04-24T08:58:50;12.80;99.90
43697;DHT22;29301;47.620;19.560;2023-04-24T09:01:17;12.90;99.90
43697;DHT22;29301;47.620;19.560;2023-04-24T09:03:43;13.00;99.40
43697;DHT22;29301;47.620;19.560;2023-04-24T09:06:11;13.10;98.80
43697;DHT22;29301;47.620;19.560;2023-04-24T09:08:37;13.20;97.80
43697;DHT22;29301;47.620;19.560;2023-04-24T09:11:04;13.20;97.50
43697;DHT22;29301;47.620;19.560;2023-04-24T09:13:30;13.30;97.50
43697;DHT22;29301;47.620;19.560;2023-04-24T09:15:57;13.40;96.70
43697;DHT22;29301;47.620;19.560;2023-04-24T09:18:23;13.40;96.30
43697;DHT22;29301;47.620;19.560;2023-04-24T09:21:08;13.50;96.60
43697;DHT22;29301;47.620;19.560;2023-04-24T09:23:34;13.60;96.20
43697;DHT22;29301;47.620;19.560;2023-04-24T09:26:02;13.60;96.20
43697;DHT22;29301;47.620;19.560;2023-04-24T09:28:32;13.70;96.60
43697;DHT22;29301;47.620;19.560;2023-04-24T09:31:12;13.70;95.80
43697;DHT22;29301;47.620;19.560;2023-04-24T09:33:39;13.70;95.20
43697;DHT22;29301;47.620;19.560;2023-04-24T09:36:05;13.70;95.70
43697;DHT22;29301;47.620;19.560;2023-04-24T09:38:36;13.90;96.50
43697;DHT22;29301;47.620;19.560;2023-04-24T09:41:06;13.90;95.90
43697;DHT22;29301;47.620;19.560;2023-04-24T09:43:33;14.10;95.00
43697;DHT22;29301;47.620;19.560;2023-04-24T09:46:00;14.10;95.40
43697;DHT22;29301;47.620;19.560;2023-04-24T09:48:37;14.30;94.80
43697;DHT22;29301;47.620;19.560;2023-04-24T09:51:04;14.50;94.50
43697;DHT22;29301;47.620;19.560;2023-04-24T09:53:32;14.80;92.70
43697;DHT22;29301;47.620;19.560;2023-04-24T09:56:10;14.90;92.30
43697;DHT22;29301;47.620;19.560;2023-04-24T09:58:37;15.00;92.20
43697;DHT22;29301;47.620;19.560;2023-04-24T10:01:04;15.30;92.10
43697;DHT22;29301;47.620;19.560;2023-04-24T10:03:30;15.50;90.70
43697;DHT22;29301;47.620;19.560;2023-04-24T10:06:00;15.50;90.10
43697;DHT22;29301;47.620;19.560;2023-04-24T10:08:27;15.60;88.00
43697;DHT22;29301;47.620;19.560;2023-04-24T10:10:58;15.70;88.80
43697;DHT22;29301;47.620;19.560;2023-04-24T10:13:25;15.80;88.90
43697;DHT22;29301;47.620;19.560;2023-04-24T10:15:51;15.90;88.70
43697;DHT22;29301;47.620;19.560;2023-04-24T10:18:17;16.10;89.30
43697;DHT22;29301;47.620;19.560;2023-04-24T10:20:47;16.20;84.90
43697;DHT22;29301;47.620;19.560;2023-04-24T10:23:13;16.20;83.90
43697;DHT22;29301;47.620;19.560;2023-04-24T10:25:39;16.30;84.10
43697;DHT22;29301;47.620;19.560;2023-04-24T10:28:06;16.30;82.60
43697;DHT22;29301;47.620;19.560;2023-04-24T10:30:35;16.30;85.80
43697;DHT22;29301;47.620;19.560;2023-04-24T10:33:05;16.40;85.60
43697;DHT22;29301;47.620;19.560;2023-04-24T10:35:43;16.50;83.90
43697;DHT22;29301;47.620;19.560;2023-04-24T10:38:15;16.50;83.50
43697;DHT22;29301;47.620;19.560;2023-04-24T10:40:42;16.30;79.90
43697;DHT22;29301;47.620;19.560;2023-04-24T10:43:09;16.20;80.70
43697;DHT22;29301;47.620;19.560;2023-04-24T10:45:37;16.30;79.10
43697;DHT22;29301;47.620;19.560;2023-04-24T10:48:09;16.40;79.00
43697;DHT22;29301;47.620;19.560;2023-04-24T10:50:52;16.60;77.30
43697;DHT22;29301;47.620;19.560;2023-04-24T10:53:23;16.70;76.60
43697;DHT22;29301;47.620;19.560;2023-04-24T10:56:12;17.00;75.30
43697;DHT22;29301;47.620;19.560;2023-04-24T10:58:50;17.10;72.10
43697;DHT22;29301;47.620;19.560;2023-04-24T11:01:31;17.20;72.00
43697;DHT22;29301;47.620;19.560;2023-04-24T11:04:02;17.20;70.40
43697;DHT22;29301;47.620;19.560;2023-04-24T11:06:37;17.30;71.00
43697;DHT22;29301;47.620;19.560;2023-04-24T11:09:10;17.40;70.20
43697;DHT22;29301;47.620;19.560;2023-04-24T11:11:38;17.40;68.20
43697;DHT22;29301;47.620;19.560;2023-04-24T11:14:10;17.40;67.10
43697;DHT22;29301;47.620;19.560;2023-04-24T11:16:43;17.40;68.60
43697;DHT22;29301;47.620;19.560;2023-04-24T11:22:02;17.50;67.10
43697;DHT22;29301;47.620;19.560;2023-04-24T11:30:00;17.30;68.20
43697;DHT22;29301;47.620;19.560;2023-04-24T11:35:04;17.20;68.70
43697;DHT22;29301;47.620;19.560;2023-04-24T11:37:38;17.00;70.80
43697;DHT22;29301;47.620;19.560;2023-04-24T11:40:06;17.10;74.40
43697;DHT22;29301;47.620;19.560;2023-04-24T11:42:40;17.10;75.50
43697;DHT22;29301;47.620;19.560;2023-04-24T11:45:14;16.90;77.20
43697;DHT22;29301;47.620;19.560;2023-04-24T11:47:40;16.80;78.60
43697;DHT22;29301;47.620;19.560;2023-04-24T11:50:08;16.80;78.00
43697;DHT22;29301;47.620;19.560;2023-04-24T11:52:38;16.70;78.50
43697;DHT22;29301;47.620;19.560;2023-04-24T11:55:04;16.80;79.40
43697;DHT22;29301;47.620;19.560;2023-04-24T11:57:32;16.80;79.30
43697;DHT22;29301;47.620;19.560;2023-04-24T12:00:02;16.80;79.90
43697;DHT22;29301;47.620;19.560;2023-04-24T12:02:28;16.70;81.60
43697;DHT22;29301;47.620;19.560;2023-04-24T12:04:54;16.60;84.50
43697;DHT22;29301;47.620;19.560;2023-04-24T12:07:20;16.50;88.10
43697;DHT22;29301;47.620;19.560;2023-04-24T12:09:55;16.40;89.90
43697;DHT22;29301;47.620;19.560;2023-04-24T12:12:25;16.30;90.40
43697;DHT22;29301;47.620;19.560;2023-04-24T12:14:56;16.30;91.30
43697;DHT22;29301;47.620;19.560;2023-04-24T12:17:26;16.40;91.50
43697;DHT22;29301;47.620;19.560;2023-04-24T12:19:57;16.40;91.00
43697;DHT22;29301;47.620;19.560;2023-04-24T12:22:23;16.50;91.40
43697;DHT22;29301;47.620;19.560;2023-04-24T12:25:02;16.50;91.20
43697;DHT22;29301;47.620;19.560;2023-04-24T12:27:30;16.50;92.70
43697;DHT22;29301;47.620;19.560;2023-04-24T12:29:58;16.60;93.20
43697;DHT22;29301;47.620;19.560;2023-04-24T12:32:25;16.80;93.10
43697;DHT22;29301;47.620;19.560;2023-04-24T12:34:51;16.90;93.50
43697;DHT22;29301;47.620;19.560;2023-04-24T12:37:18;17.00;93.20
43697;DHT22;29301;47.620;19.560;2023-04-24T12:40:11;17.00;92.00
43697;DHT22;29301;47.620;19.560;2023-04-24T12:42:45;17.00;92.40
43697;DHT22;29301;47.620;19.560;2023-04-24T12:45:11;17.10;90.50
43697;DHT22;29301;47.620;19.560;2023-04-24T12:47:41;17.10;90.20
43697;DHT22;29301;47.620;19.560;2023-04-24T12:50:11;17.20;90.20
43697;DHT22;29301;47.620;19.560;2023-04-24T12:52:37;17.10;89.20
43697;DHT22;29301;47.620;19.560;2023-04-24T12:55:05;17.20;89.60
43697;DHT22;29301;47.620;19.560;2023-04-24T12:57:33;17.10;90.10
43697;DHT22;29301;47.620;19.560;2023-04-24T13:00:00;16.90;92.10
43697;DHT22;29301;47.620;19.560;2023-04-24T13:02:27;16.70;94.00
43697;DHT22;29301;47.620;19.560;2023-04-24T13:04:54;16.10;95.20
43697;DHT22;29301;47.620;19.560;2023-04-24T14:18:53;15.60;99.90
43697;DHT22;29301;47.620;19.560;2023-04-24T14:21:19;15.80;99.90
43697;DHT22;29301;47.620;19.560;2023-04-24T14:23:45;15.80;99.90
43697;DHT22;29301;47.620;19.560;2023-04-24T14:26:10;15.80;99.90
43697;DHT22;29301;47.620;19.560;2023-04-24T14:28:36;15.90;99.70
43697;DHT22;29301;47.620;19.560;2023-04-24T14:31:02;15.80;98.90
43697;DHT22;29301;47.620;19.560;2023-04-24T14:33:27;15.80;97.90
43697;DHT22;29301;47.620;19.560;2023-04-24T14:35:53;15.80;97.00
43697;DHT22;29301;47.620;19.560;2023-04-24T14:38:19;15.70;96.60
43697;DHT22;29301;47.620;19.560;2023-04-24T14:40:45;15.70;96.70
43697;DHT22;29301;47.620;19.560;2023-04-24T14:43:11;15.70;97.40
43697;DHT22;29301;47.620;19.560;2023-04-24T14:45:37;15.60;97.50
43697;DHT22;29301;47.620;19.560;2023-04-24T14:48:03;15.60;96.70
43697;DHT22;29301;47.620;19.560;2023-04-24T14:50:29;15.50;95.60
43697;DHT22;29301;47.620;19.560;2023-04-24T14:52:56;15.40;96.50
43697;DHT22;29301;47.620;19.560;2023-04-24T14:55:25;15.30;97.80
43697;DHT22;29301;47.620;19.560;2023-04-24T14:57:51;15.20;98.00
43697;DHT22;29301;47.620;19.560;2023-04-24T15:00:18;15.10;98.20
43697;DHT22;29301;47.620;19.560;2023-04-24T15:02:45;15.10;99.60
43697;DHT22;29301;47.620;19.560;2023-04-24T15:05:11;15.00;99.20
43697;DHT22;29301;47.620;19.560;2023-04-24T15:07:38;15.00;99.90
43697;DHT22;29301;47.620;19.560;2023-04-24T15:10:04;15.00;99.90
43697;DHT22;29301;47.620;19.560;2023-04-24T15:12:30;14.90;99.90
43697;DHT22;29301;47.620;19.560;2023-04-24T15:14:58;14.90;99.90
43697;DHT22;29301;47.620;19.560;2023-04-24T15:17:24;14.90;99.90
43697;DHT22;29301;47.620;19.560;2023-04-24T15:19:50;14.90;99.90
43697;DHT22;29301;47.620;19.560;2023-04-24T15:22:15;14.80;99.90
43697;DHT22;29301;47.620;19.560;2023-04-24T15:24:41;14.80;99.90
43697;DHT22;29301;47.620;19.560;2023-04-24T15:27:09;14.70;99.90
43697;DHT22;29301;47.620;19.560;2023-04-24T15:29:36;14.70;99.90
43697;DHT22;29301;47.620;19.560;2023-04-24T15:32:01;14.80;99.90
43697;DHT22;29301;47.620;19.560;2023-04-24T15:34:27;14.70;99.90
43697;DHT22;29301;47.620;19.560;2023-04-24T15:36:53;14.70;99.90
43697;DHT22;29301;47.620;19.560;2023-04-24T15:39:22;14.70;99.90
43697;DHT22;29301;47.620;19.560;2023-04-24T15:41:49;14.60;99.90
43697;DHT22;29301;47.620;19.560;2023-04-24T15:44:15;14.60;99.90
43697;DHT22;29301;47.620;19.560;2023-04-24T15:46:41;14.60;99.90
43697;DHT22;29301;47.620;19.560;2023-04-24T15:49:06;14.60;99.90
43697;DHT22;29301;47.620;19.560;2023-04-24T15:51:32;14.50;99.90
43697;DHT22;29301;47.620;19.560;2023-04-24T15:53:58;14.50;99.90
43697;DHT22;29301;47.620;19.560;2023-04-24T15:56:24;14.40;99.90
43697;DHT22;29301;47.620;19.560;2023-04-24T15:58:49;14.50;99.90
43697;DHT22;29301;47.620;19.560;2023-04-24T16:01:15;14.40;99.90
43697;DHT22;29301;47.620;19.560;2023-04-24T16:03:41;14.40;99.90
43697;DHT22;29301;47.620;19.560;2023-04-24T16:06:06;14.40;99.90
43697;DHT22;29301;47.620;19.560;2023-04-24T16:08:32;14.30;99.90
43697;DHT22;29301;47.620;19.560;2023-04-24T16:10:58;14.30;99.90
43697;DHT22;29301;47.620;19.560;2023-04-24T16:13:23;14.30;99.90
43697;DHT22;29301;47.620;19.560;2023-04-24T16:15:50;14.30;99.90
43697;DHT22;29301;47.620;19.560;2023-04-24T16:18:16;14.30;99.90
43697;DHT22;29301;47.620;19.560;2023-04-24T16:20:42;14.30;99.90
43697;DHT22;29301;47.620;19.560;2023-04-24T16:23:07;14.30;99.90
43697;DHT22;29301;47.620;19.560;2023-04-24T16:25:33;14.30;99.90
43697;DHT22;29301;47.620;19.560;2023-04-24T16:27:59;14.30;99.90
43697;DHT22;29301;47.620;19.560;2023-04-24T16:30:24;14.30;99.90
43697;DHT22;29301;47.620;19.560;2023-04-24T16:32:50;14.30;99.90
43697;DHT22;29301;47.620;19.560;2023-04-24T16:35:16;14.40;99.90